Time;durP1;ratioP1;P1;durP2;ratioP2;P2;SDS_P1;SDS_P2;PMS_P1;PMS_P2;Temp;Humidity;BMP_temperature;BMP_pressure;BME280_temperature;BME280_humidity;BME280_pressure;Samples;Min_cycle;Max_cycle;Signal;HPM_P1;HPM_P2
2024/02/14 00:01:31;;;;;;;4.85;1.90;;;;;;;4.29;100.00;101552.50;5016913;28;20417;-73
2024/02/14 00:03:57;;;;;;;3.65;1.85;;;;;;;4.28;100.00;101548.22;5001525;28;20033;-71
2024/02/14 00:06:23;;;;;;;4.95;1.85;;;;;;;4.29;100.00;101543.72;5009825;28;20544;-72
2024/02/14 00:08:49;;;;;;;3.38;1.52;;;;;;;4.27;100.00;101546.59;5010643;28;20037;-71
2024/02/14 00:11:14;;;;;;;4.63;2.17;;;;;;;4.26;100.00;101538.81;5005883;28;20069;-72
2024/02/14 00:13:41;;;;;;;4.90;1.80;;;;;;;4.28;100.00;101547.41;5010797;28;20108;-71
2024/02/14 00:16:06;;;;;;;5.13;1.98;;;;;;;4.27;100.00;101548.44;5018942;28;20042;-71
2024/02/14 00:18:32;;;;;;;3.22;1.80;;;;;;;4.26;100.00;101546.78;4997427;28;20033;-71
2024/02/14 00:20:58;;;;;;;3.88;1.67;;;;;;;4.25;100.00;101547.81;5017434;28;20458;-72
2024/02/14 00:23:24;;;;;;;7.25;1.80;;;;;;;4.24;100.00;101540.88;5008031;28;20026;-71
2024/02/14 00:25:49;;;;;;;3.65;1.60;;;;;;;4.24;100.00;101543.53;5017466;28;20043;-72
2024/02/14 00:28:15;;;;;;;3.45;1.95;;;;;;;4.22;100.00;101542.94;4994878;28;20025;-72
2024/02/14 00:30:40;;;;;;;3.63;1.52;;;;;;;4.20;100.00;101543.16;5019747;28;20047;-71
2024/02/14 00:33:29;;;;;;;4.68;1.85;;;;;;;4.21;100.00;101541.31;5028657;28;20046;-71
2024/02/14 00:35:54;;;;;;;3.83;1.65;;;;;;;4.19;100.00;101533.53;5003961;28;20044;-71
2024/02/14 00:38:20;;;;;;;2.50;1.85;;;;;;;4.19;100.00;101530.06;5018527;28;20026;-71
2024/02/14 00:40:46;;;;;;;3.35;1.75;;;;;;;4.17;100.00;101526.81;5019827;28;20067;-72
2024/02/14 00:43:11;;;;;;;3.35;2.30;;;;;;;4.17;100.00;101534.78;5015211;28;20144;-71
2024/02/14 00:45:38;;;;;;;6.10;1.58;;;;;;;4.17;100.00;101529.47;5002375;28;20064;-71
2024/02/14 00:48:04;;;;;;;3.47;2.10;;;;;;;4.16;100.00;101526.00;5018727;28;20033;-71
2024/02/14 00:50:29;;;;;;;5.53;1.60;;;;;;;4.17;100.00;101521.53;5007192;28;20284;-72
2024/02/14 00:52:55;;;;;;;3.22;2.00;;;;;;;4.18;100.00;101521.31;5013786;28;20037;-72
2024/02/14 00:55:20;;;;;;;2.60;1.60;;;;;;;4.20;100.00;101524.59;5018404;28;20063;-72
2024/02/14 00:57:46;;;;;;;3.67;1.67;;;;;;;4.22;100.00;101521.72;5012707;28;20033;-73
2024/02/14 01:00:11;;;;;;;7.78;2.13;;;;;;;4.23;100.00;101529.47;5007839;28;20044;-72
2024/02/14 01:02:38;;;;;;;4.30;1.73;;;;;;;4.24;100.00;101531.09;4998876;28;20056;-71
2024/02/14 01:05:04;;;;;;;4.40;1.90;;;;;;;4.26;100.00;101512.31;5013042;28;20038;-72
2024/02/14 01:07:31;;;;;;;2.83;1.70;;;;;;;4.26;100.00;101520.25;4982909;28;20900;-73
2024/02/14 01:09:57;;;;;;;;;;;;;;;4.27;100.00;101513.97;4997977;28;20491;-74
2024/02/14 01:12:22;;;;;;;5.18;2.03;;;;;;;4.27;100.00;101520.06;5028211;28;19924;-73
2024/02/14 01:14:49;;;;;;;3.20;1.63;;;;;;;4.27;100.00;101514.78;5009068;28;20041;-73
2024/02/14 01:17:14;;;;;;;9.82;2.25;;;;;;;4.28;100.00;101510.28;5013069;28;20045;-72
2024/02/14 01:19:40;;;;;;;4.50;2.00;;;;;;;4.31;100.00;101515.97;5014426;28;20049;-73
2024/02/14 01:22:08;;;;;;;4.28;2.30;;;;;;;4.32;100.00;101508.81;5008477;28;20084;-73
2024/02/14 01:24:35;;;;;;;3.72;1.60;;;;;;;4.30;100.00;101509.03;4980860;28;20042;-72
2024/02/14 01:27:02;;;;;;;3.45;1.77;;;;;;;4.33;100.00;101513.09;5009225;28;20056;-71
2024/02/14 01:29:28;;;;;;;2.45;1.70;;;;;;;4.32;100.00;101500.88;5012897;28;20128;-73
2024/02/14 01:31:54;;;;;;;7.60;2.20;;;;;;;4.32;100.00;101491.06;5013924;28;20044;-73
2024/02/14 01:34:20;;;;;;;5.63;2.28;;;;;;;4.32;100.00;101500.88;5016356;28;20055;-73
2024/02/14 01:36:48;;;;;;;5.50;2.47;;;;;;;4.31;100.00;101494.75;5002055;28;20037;-73
2024/02/14 01:39:13;;;;;;;3.80;2.50;;;;;;;4.31;100.00;101491.28;5017089;28;20042;-73
2024/02/14 01:41:48;;;;;;;2.65;1.83;;;;;;;4.31;100.00;101485.97;5017612;28;20503;-73
2024/02/14 01:44:18;;;;;;;3.88;2.13;;;;;;;4.29;100.00;101482.72;4996962;28;20564;-72
2024/02/14 01:46:44;;;;;;;4.53;2.00;;;;;;;4.27;100.00;101476.84;5016991;28;20065;-73
2024/02/14 01:49:14;;;;;;;4.95;2.42;;;;;;;4.26;100.00;101480.47;5013603;28;20172;-73
2024/02/14 01:51:42;;;;;;;3.67;2.20;;;;;;;4.26;100.00;101483.94;4995852;28;20052;-72
2024/02/14 01:54:08;;;;;;;4.60;2.15;;;;;;;4.23;100.00;101479.06;5011222;28;20038;-72
2024/02/14 01:56:34;;;;;;;5.15;2.05;;;;;;;4.22;100.00;101474.00;5014959;28;20044;-72
2024/02/14 01:59:00;;;;;;;3.00;1.77;;;;;;;4.23;100.00;101471.13;5014348;28;20782;-72
2024/02/14 02:01:26;;;;;;;5.60;2.30;;;;;;;4.22;100.00;101481.94;5009783;28;20034;-72
2024/02/14 02:03:53;;;;;;;5.38;2.08;;;;;;;4.22;100.00;101468.69;4998572;28;20046;-72
2024/02/14 02:06:19;;;;;;;6.63;2.47;;;;;;;4.20;100.00;101466.25;5017352;28;20169;-72
2024/02/14 02:08:45;;;;;;;3.63;2.08;;;;;;;4.21;100.00;101461.75;5014293;28;20034;-72
2024/02/14 02:11:11;;;;;;;5.93;2.80;;;;;;;4.19;100.00;101461.13;5003306;28;20154;-71
2024/02/14 02:13:57;;;;;;;4.13;2.03;;;;;;;4.17;100.00;101458.69;5013501;28;20783;-72
2024/02/14 02:16:43;;;;;;;3.08;2.22;;;;;;;4.13;100.00;101454.81;5012606;28;20052;-72
2024/02/14 02:19:28;;;;;;;4.07;2.47;;;;;;;4.10;100.00;101449.97;5009806;28;20576;-72
2024/02/14 02:22:14;;;;;;;4.30;3.22;;;;;;;4.08;100.00;101447.53;5011225;28;20636;-73
2024/02/14 02:24:59;;;;;;;4.28;2.63;;;;;;;4.04;100.00;101446.31;5020215;28;20513;-71
2024/02/14 02:27:24;;;;;;;7.05;2.67;;;;;;;4.06;100.00;101444.28;5012196;28;20034;-71
2024/02/14 02:30:10;;;;;;;4.50;3.10;;;;;;;4.05;100.00;101442.63;5024955;28;20387;-72
2024/02/14 02:32:37;;;;;;;4.32;2.38;;;;;;;4.05;100.00;101441.81;5003777;28;20041;-72
2024/02/14 02:35:04;;;;;;;;;;;;;;;4.00;100.00;101434.50;5007126;28;20033;-70
2024/02/14 02:37:44;;;;;;;4.57;2.40;;;;;;;4.00;100.00;101433.69;5016159;28;20006;-70
2024/02/14 02:40:30;;;;;;;6.28;2.47;;;;;;;3.98;100.00;101425.94;5024721;28;20853;-71
2024/02/14 02:43:16;;;;;;;4.80;3.03;;;;;;;4.00;100.00;101431.88;5021380;28;20525;-71
2024/02/14 02:46:02;;;;;;;5.40;2.50;;;;;;;3.99;100.00;101422.25;5016484;28;20049;-73
2024/02/14 02:48:59;;;;;;;5.05;2.50;;;;;;;3.94;100.00;101419.44;5025238;28;20435;-72
2024/02/14 02:51:25;;;;;;;4.65;2.90;;;;;;;3.92;100.00;101420.66;5011610;28;20090;-71
2024/02/14 02:54:11;;;;;;;4.05;2.88;;;;;;;3.90;100.00;101412.09;5020495;28;20124;-71
2024/02/14 02:56:58;;;;;;;5.30;2.95;;;;;;;3.86;100.00;101411.69;5018909;28;20043;-72
2024/02/14 02:59:24;;;;;;;9.25;3.67;;;;;;;3.85;100.00;101404.78;5021068;28;20099;-72
2024/02/14 03:01:50;;;;;;;6.60;3.47;;;;;;;3.82;100.00;101405.22;5005447;28;20042;-72
2024/02/14 03:04:35;;;;;;;4.68;2.83;;;;;;;3.84;100.00;101408.44;5012210;28;20414;-72
2024/02/14 03:07:20;;;;;;;4.57;3.13;;;;;;;3.84;100.00;101398.66;5030050;28;20042;-70
2024/02/14 03:10:07;;;;;;;5.00;2.72;;;;;;;3.87;100.00;101402.75;5009276;28;20038;-71
2024/02/14 03:12:52;;;;;;;5.63;3.00;;;;;;;3.87;100.00;101401.94;5034221;28;20143;-70
2024/02/14 03:15:38;;;;;;;7.00;2.55;;;;;;;3.87;100.00;101400.09;5001316;28;20052;-71
2024/02/14 03:18:09;;;;;;;5.20;2.60;;;;;;;3.88;100.00;101398.25;5017689;28;20037;-71
2024/02/14 03:20:38;;;;;;;4.03;2.55;;;;;;;3.88;100.00;101398.25;5007209;28;20977;-71
2024/02/14 03:23:03;;;;;;;5.75;2.70;;;;;;;3.88;100.00;101399.06;4998461;28;20041;-71
2024/02/14 03:25:29;;;;;;;4.65;2.50;;;;;;;3.89;100.00;101395.41;5017889;28;20041;-71
2024/02/14 03:27:59;;;;;;;4.35;2.45;;;;;;;3.88;100.00;101391.13;4990666;28;20045;-71
2024/02/14 03:30:25;;;;;;;4.85;2.90;;;;;;;3.86;100.00;101377.25;5023711;28;20046;-71
2024/02/14 03:32:52;;;;;;;6.40;3.22;;;;;;;3.86;100.00;101374.59;5019215;28;20112;-71
2024/02/14 03:35:19;;;;;;;6.22;3.22;;;;;;;3.86;100.00;101368.50;5019278;28;20040;-72
2024/02/14 03:37:48;;;;;;;5.88;2.80;;;;;;;3.84;100.00;101371.34;5028056;28;20034;-72
2024/02/14 03:40:14;;;;;;;7.22;3.63;;;;;;;3.84;100.00;101371.34;5020570;28;20120;-73
2024/02/14 03:42:40;;;;;;;5.97;3.30;;;;;;;3.80;100.00;101355.09;5012166;28;20112;-71
2024/02/14 03:45:09;;;;;;;5.30;3.10;;;;;;;3.82;100.00;101360.16;5002463;28;20417;-71
2024/02/14 03:47:39;;;;;;;5.70;2.80;;;;;;;3.82;100.00;101360.16;5021454;28;20033;-71
2024/02/14 03:50:06;;;;;;;5.03;3.08;;;;;;;3.80;100.00;101355.09;5021183;28;20487;-71
2024/02/14 03:52:32;;;;;;;5.55;2.95;;;;;;;3.77;100.00;101352.03;5013102;28;20034;-72
2024/02/14 03:54:59;;;;;;;11.07;3.00;;;;;;;3.81;100.00;101363.84;4993335;28;20041;-72
2024/02/14 03:57:28;;;;;;;5.28;3.10;;;;;;;3.81;100.00;101355.88;5015988;28;20029;-72
2024/02/14 03:59:59;;;;;;;5.13;3.22;;;;;;;3.80;100.00;101354.25;5021255;28;20030;-72
2024/02/14 04:02:25;;;;;;;5.43;3.47;;;;;;;3.79;100.00;101348.16;5007124;28;20030;-72
2024/02/14 04:04:51;;;;;;;6.25;3.38;;;;;;;3.79;100.00;101349.97;5027111;28;20038;-72
2024/02/14 04:07:18;;;;;;;5.82;3.33;;;;;;;3.80;100.00;101348.97;4998140;28;20148;-72
2024/02/14 04:09:43;;;;;;;4.80;2.90;;;;;;;3.81;100.00;101347.94;5024769;28;20032;-72
2024/02/14 04:12:10;;;;;;;5.20;2.83;;;;;;;3.78;100.00;101343.84;5018003;28;20037;-72
2024/02/14 04:14:37;;;;;;;4.63;3.00;;;;;;;3.80;100.00;101348.97;4998893;28;20037;-72
2024/02/14 04:17:03;;;;;;;4.63;2.83;;;;;;;3.80;100.00;101349.78;5006776;28;20061;-72
2024/02/14 04:19:29;;;;;;;6.00;3.22;;;;;;;3.82;100.00;101349.56;5006306;28;20405;-72
2024/02/14 04:21:55;;;;;;;4.40;2.80;;;;;;;3.79;100.00;101340.22;5011158;28;20491;-71
2024/02/14 04:24:20;;;;;;;5.57;3.33;;;;;;;3.79;100.00;101342.84;5021944;28;20065;-71
2024/02/14 04:26:48;;;;;;;4.88;2.80;;;;;;;3.79;100.00;101336.72;5017765;28;20141;-72
2024/02/14 04:29:13;;;;;;;5.35;3.30;;;;;;;3.81;100.00;101337.34;5022393;28;20380;-72
2024/02/14 04:31:39;;;;;;;5.03;2.95;;;;;;;3.82;100.00;101331.81;5015731;28;20044;-71
2024/02/14 04:34:08;;;;;;;7.00;2.95;;;;;;;3.84;100.00;101334.25;5012505;28;20037;-72
2024/02/14 04:36:35;;;;;;;6.03;3.00;;;;;;;3.84;100.00;101328.97;5010835;28;20111;-71
2024/02/14 04:39:01;;;;;;;3.92;2.83;;;;;;;3.85;100.00;101330.59;4984527;28;20140;-71
2024/02/14 04:41:27;;;;;;;4.75;3.55;;;;;;;3.87;100.00;101330.41;5016375;28;20235;-71
2024/02/14 04:43:53;;;;;;;5.43;3.35;;;;;;;3.84;100.00;101329.78;5012401;28;20116;-71
2024/02/14 04:46:18;;;;;;;5.55;3.90;;;;;;;3.87;100.00;101328.56;4999555;28;20041;-71
2024/02/14 04:48:44;;;;;;;4.93;3.15;;;;;;;3.88;100.00;101324.06;5003007;28;20029;-71
2024/02/14 04:51:10;;;;;;;4.57;3.13;;;;;;;3.90;100.00;101316.72;5013129;28;20041;-71
2024/02/14 04:53:35;;;;;;;5.75;3.33;;;;;;;3.89;100.00;101309.78;4994931;28;20920;-72
2024/02/14 04:56:01;;;;;;;6.35;3.28;;;;;;;3.89;100.00;101309.78;5014666;28;20026;-71
2024/02/14 04:58:27;;;;;;;5.70;3.85;;;;;;;3.92;100.00;101304.88;5010512;28;20037;-71
2024/02/14 05:00:52;;;;;;;4.75;3.25;;;;;;;3.92;100.00;101304.06;5013715;28;20041;-71
2024/02/14 05:03:18;;;;;;;5.43;3.47;;;;;;;3.94;100.00;101300.19;5005877;28;20038;-72
2024/02/14 05:05:44;;;;;;;5.35;3.20;;;;;;;3.94;100.00;101297.53;5012220;28;20056;-72
2024/02/14 05:08:10;;;;;;;6.65;3.28;;;;;;;3.95;100.00;101293.84;5006678;28;20104;-71
2024/02/14 05:10:36;;;;;;;5.85;3.22;;;;;;;3.96;100.00;101303.44;5022635;28;20094;-72
2024/02/14 05:13:01;;;;;;;5.18;3.17;;;;;;;3.96;100.00;101295.47;5010786;28;20446;-72
2024/02/14 05:15:26;;;;;;;9.40;3.60;;;;;;;3.98;100.00;101293.41;5018439;28;20041;-72
2024/02/14 05:17:52;;;;;;;7.55;3.33;;;;;;;4.02;100.00;101288.53;5012528;28;20037;-72
2024/02/14 05:20:18;;;;;;;4.03;3.30;;;;;;;4.01;100.00;101293.00;5001844;28;20040;-72
2024/02/14 05:22:44;;;;;;;9.13;4.18;;;;;;;4.03;100.00;101293.59;5000347;28;20064;-72
2024/02/14 05:25:09;;;;;;;6.72;3.42;;;;;;;4.03;100.00;101290.13;5011650;28;20079;-72
2024/02/14 05:27:49;;;;;;;5.40;3.35;;;;;;;4.05;100.00;101280.94;5017030;28;20036;-72
2024/02/14 05:30:15;;;;;;;7.90;3.85;;;;;;;4.06;100.00;101285.25;5012928;28;20037;-72
2024/02/14 05:32:49;;;;;;;10.70;3.83;;;;;;;4.10;100.00;101286.44;5011885;28;20049;-72
2024/02/14 05:35:15;;;;;;;9.38;4.00;;;;;;;4.13;100.00;101284.38;5029944;28;20088;-72
2024/02/14 05:37:41;;;;;;;6.68;3.80;;;;;;;4.14;100.00;101280.72;5010393;28;20045;-72
2024/02/14 05:40:07;;;;;;;7.13;3.85;;;;;;;4.18;100.00;101277.41;5018792;28;20061;-72
2024/02/14 05:42:34;;;;;;;6.60;3.90;;;;;;;4.20;100.00;101279.81;5002023;28;20056;-72
2024/02/14 05:45:00;;;;;;;5.90;3.65;;;;;;;4.23;100.00;101282.06;5016850;28;20406;-72
2024/02/14 05:47:25;;;;;;;6.25;3.92;;;;;;;4.24;100.00;101275.75;5013328;28;20037;-72
2024/02/14 05:49:51;;;;;;;5.72;3.85;;;;;;;4.26;100.00;101269.19;5006597;28;20121;-72
2024/02/14 05:52:18;;;;;;;7.82;4.28;;;;;;;4.28;100.00;101276.94;5023454;28;20114;-72
2024/02/14 05:54:43;;;;;;;8.80;3.83;;;;;;;4.29;100.00;101279.38;5013332;28;20038;-72
2024/02/14 05:57:09;;;;;;;6.55;3.50;;;;;;;4.31;100.00;101276.50;5014984;28;20045;-73
2024/02/14 05:59:35;;;;;;;9.57;4.82;;;;;;;4.31;100.00;101276.50;5002741;28;20034;-73
2024/02/14 06:02:02;;;;;;;6.03;4.07;;;;;;;4.30;100.00;101264.28;5005995;28;20148;-72
2024/02/14 06:04:28;;;;;;;8.13;4.70;;;;;;;4.32;100.00;101272.81;5004566;28;20224;-72
2024/02/14 06:06:54;;;;;;;8.30;4.03;;;;;;;4.33;100.00;101266.47;5015517;28;20819;-72
2024/02/14 06:09:38;;;;;;;6.30;3.95;;;;;;;4.34;100.00;101265.47;5025292;28;20040;-72
2024/02/14 06:12:05;;;;;;;9.25;4.03;;;;;;;4.37;100.00;101270.34;5007215;28;20071;-72
2024/02/14 06:14:30;;;;;;;5.57;4.13;;;;;;;4.39;100.00;101262.97;5023042;28;20037;-72
2024/02/14 06:16:56;;;;;;;6.45;4.13;;;;;;;4.41;100.00;101268.09;5020797;28;20071;-72
2024/02/14 06:19:25;;;;;;;5.57;4.30;;;;;;;4.42;100.00;101273.16;5006158;28;20061;-72
2024/02/14 06:21:50;;;;;;;7.00;4.22;;;;;;;4.44;100.00;101265.81;5020593;28;20045;-72
2024/02/14 06:24:18;;;;;;;6.30;3.55;;;;;;;4.43;100.00;101264.19;5015324;28;20487;-72
2024/02/14 06:26:45;;;;;;;7.80;3.55;;;;;;;4.45;100.00;101262.13;5019547;28;20038;-72
2024/02/14 06:29:11;;;;;;;6.78;3.95;;;;;;;4.48;100.00;101272.31;5015600;28;20033;-72
2024/02/14 06:31:36;;;;;;;7.13;4.72;;;;;;;4.48;100.00;101272.31;5014856;28;20175;-73
2024/02/14 06:34:02;;;;;;;4.70;3.40;;;;;;;4.49;100.00;101262.50;5021672;28;20061;-72
2024/02/14 06:36:28;;;;;;;7.07;4.07;;;;;;;4.49;100.00;101273.94;5013742;28;20232;-72
2024/02/14 06:38:53;;;;;;;5.65;3.97;;;;;;;4.51;100.00;101263.91;5023321;28;20029;-72
2024/02/14 06:41:20;;;;;;;6.28;4.10;;;;;;;4.52;100.00;101264.72;5022684;28;20060;-70
2024/02/14 06:43:46;;;;;;;5.55;3.95;;;;;;;4.52;100.00;101268.19;5017395;28;20038;-71
2024/02/14 06:46:12;;;;;;;6.07;4.15;;;;;;;4.53;100.00;101264.50;5016532;28;20048;-71
2024/02/14 06:48:41;;;;;;;6.95;4.00;;;;;;;4.55;100.00;101269.59;5009805;28;20029;-72
2024/02/14 06:51:07;;;;;;;4.97;3.70;;;;;;;4.53;100.00;101264.50;5020580;28;20087;-71
2024/02/14 06:53:33;;;;;;;5.90;4.20;;;;;;;4.56;100.00;101269.38;5017455;28;20025;-71
2024/02/14 06:55:59;;;;;;;7.47;4.78;;;;;;;4.58;100.00;101261.19;5030126;28;20438;-71
2024/02/14 06:58:24;;;;;;;6.57;3.97;;;;;;;4.59;100.00;101262.81;5016395;28;20076;-71
2024/02/14 07:00:50;;;;;;;6.00;4.07;;;;;;;4.59;100.00;101263.63;5006644;28;20037;-71
2024/02/14 07:03:16;;;;;;;6.40;3.90;;;;;;;4.59;100.00;101258.31;5021304;28;20173;-71
2024/02/14 07:05:41;;;;;;;6.20;4.30;;;;;;;4.60;100.00;101257.28;5006426;28;20034;-72
2024/02/14 07:08:07;;;;;;;8.13;4.00;;;;;;;4.59;100.00;101253.00;5013727;28;20030;-72
2024/02/14 07:10:33;;;;;;;;;;;;;;;4.60;100.00;101259.94;5018541;28;20092;-72
2024/02/14 07:12:59;;;;;;;7.03;3.53;;;;;;;4.62;100.00;101263.22;4998665;28;19913;-70
2024/02/14 07:15:28;;;;;;;7.68;4.40;;;;;;;4.63;100.00;101270.13;5019080;28;20103;-70
2024/02/14 07:17:55;;;;;;;6.43;4.03;;;;;;;4.63;100.00;101264.81;5011325;28;20498;-71
2024/02/14 07:20:21;;;;;;;5.68;3.83;;;;;;;4.65;100.00;101257.44;5018836;28;20061;-71
2024/02/14 07:22:52;;;;;;;6.72;4.32;;;;;;;4.66;100.00;101263.56;5011706;28;20038;-71
2024/02/14 07:25:19;;;;;;;7.55;4.35;;;;;;;4.69;100.00;101267.66;5010247;28;20069;-70
2024/02/14 07:27:47;;;;;;;6.40;4.20;;;;;;;4.71;100.00;101260.28;5016069;28;20788;-71
2024/02/14 07:30:14;;;;;;;7.13;4.50;;;;;;;4.71;100.00;101260.28;5011773;28;20049;-71
2024/02/14 07:32:39;;;;;;;7.75;4.53;;;;;;;4.72;100.00;101262.69;5017494;28;20148;-70
2024/02/14 07:35:06;;;;;;;7.07;4.13;;;;;;;4.74;100.00;101265.13;5030343;28;20042;-72
2024/02/14 07:37:33;;;;;;;7.72;4.60;;;;;;;4.76;100.00;101271.06;5017990;28;20039;-72
2024/02/14 07:39:58;;;;;;;6.40;4.15;;;;;;;4.77;100.00;101262.06;5026224;28;20028;-72
2024/02/14 07:42:23;;;;;;;8.82;4.55;;;;;;;4.75;100.00;101262.28;5017355;28;20064;-71
2024/02/14 07:44:49;;;;;;;8.73;4.63;;;;;;;4.78;100.00;101263.69;5021164;28;20524;-71
2024/02/14 07:47:15;;;;;;;7.22;4.85;;;;;;;4.80;100.00;101262.41;5014935;28;20034;-71
2024/02/14 07:49:41;;;;;;;9.27;4.38;;;;;;;4.83;100.00;101263.84;5012405;28;20629;-71
2024/02/14 07:52:06;;;;;;;10.30;4.90;;;;;;;4.83;100.00;101261.19;5005784;28;20065;-71
2024/02/14 07:54:32;;;;;;;6.93;4.57;;;;;;;4.84;100.00;101257.50;5019165;28;20510;-70
2024/02/14 07:56:58;;;;;;;9.57;4.18;;;;;;;4.85;100.00;101259.94;5022925;28;20063;-72
2024/02/14 07:59:24;;;;;;;6.20;4.28;;;;;;;4.87;100.00;101259.69;5015089;28;20024;-72
2024/02/14 08:01:50;;;;;;;7.70;4.13;;;;;;;4.87;100.00;101257.84;4999743;28;20044;-72
2024/02/14 08:04:16;;;;;;;6.75;4.32;;;;;;;4.88;100.00;101254.19;5013744;28;20034;-72
2024/02/14 08:06:43;;;;;;;7.72;4.85;;;;;;;4.90;100.00;101262.75;5021765;28;20096;-72
2024/02/14 08:09:09;;;;;;;9.38;4.60;;;;;;;4.91;100.00;101260.91;5023026;28;20041;-72
2024/02/14 08:11:36;;;;;;;6.60;4.28;;;;;;;4.95;100.00;101254.13;4989275;28;20060;-72
2024/02/14 08:14:01;;;;;;;6.80;4.22;;;;;;;4.98;100.00;101263.50;5005233;28;20132;-72
2024/02/14 08:16:27;;;;;;;7.95;4.70;;;;;;;5.00;100.00;101254.25;5011465;28;20568;-72
2024/02/14 08:18:58;;;;;;;7.15;4.07;;;;;;;5.02;100.00;101246.09;4997614;28;20038;-72
2024/02/14 08:21:28;;;;;;;7.57;4.57;;;;;;;5.06;100.00;101253.38;5014516;28;20029;-71
2024/02/14 08:23:54;;;;;;;7.07;4.50;;;;;;;5.10;100.00;101257.25;5016690;28;20076;-70
2024/02/14 08:26:22;;;;;;;8.27;4.70;;;;;;;5.13;100.00;101253.31;4986262;28;20041;-71
2024/02/14 08:28:51;;;;;;;8.45;4.70;;;;;;;5.14;100.00;101255.75;5006125;28;20088;-70
2024/02/14 08:31:17;;;;;;;6.63;4.28;;;;;;;5.15;100.00;101246.78;5017877;28;20041;-70
2024/02/14 08:33:43;;;;;;;8.90;5.53;;;;;;;5.22;100.00;101256.50;5018623;28;20494;-70
2024/02/14 08:36:09;;;;;;;7.72;4.65;;;;;;;5.24;100.00;101265.06;5016558;28;20039;-70
2024/02/14 08:38:35;;;;;;;;;;;;;;;5.28;100.00;101260.91;5019678;28;20029;-71
2024/02/14 08:41:04;;;;;;;7.00;4.30;;;;;;;5.29;100.00;101255.41;5018143;28;19939;-71
2024/02/14 08:43:30;;;;;;;5.90;4.35;;;;;;;5.32;100.00;101252.28;5015488;28;20064;-72
2024/02/14 08:45:56;;;;;;;6.93;4.22;;;;;;;5.35;100.00;101256.34;5014634;28;20171;-72
2024/02/14 08:48:23;;;;;;;7.88;4.47;;;;;;;5.39;100.00;101257.53;5007453;28;20044;-71
2024/02/14 08:50:49;;;;;;;8.30;4.50;;;;;;;5.43;100.00;101264.03;5012730;28;20049;-71
2024/02/14 08:53:15;;;;;;;7.53;4.70;;;;;;;5.46;100.00;101252.94;5015365;28;20056;-70
2024/02/14 08:55:40;;;;;;;7.63;4.80;;;;;;;5.47;100.00;101254.56;5014863;28;20059;-72
2024/02/14 08:58:06;;;;;;;7.97;4.65;;;;;;;5.52;100.00;101252.06;5019576;28;20033;-72
2024/02/14 09:00:35;;;;;;;7.15;4.70;;;;;;;5.56;100.00;101263.88;5016298;28;20033;-72
2024/02/14 09:03:01;;;;;;;7.75;4.22;;;;;;;5.58;100.00;101267.09;5015231;28;20503;-71
2024/02/14 09:05:28;;;;;;;9.52;4.50;;;;;;;5.64;100.00;101260.09;5015492;28;20068;-71
2024/02/14 09:07:54;;;;;;;7.95;4.30;;;;;;;5.67;100.00;101267.59;5015516;28;20119;-71
2024/02/14 09:10:20;;;;;;;7.63;4.95;;;;;;;5.71;100.00;101261.63;5024615;28;20068;-71
2024/02/14 09:12:46;;;;;;;9.23;5.50;;;;;;;5.74;100.00;101255.84;5039025;28;20124;-71
2024/02/14 09:15:31;;;;;;;6.75;3.95;;;;;;;5.79;100.00;101268.47;5024662;28;20037;-70
2024/02/14 09:17:57;;;;;;;7.03;4.32;;;;;;;5.84;100.00;101268.63;5031636;28;20038;-72
2024/02/14 09:20:22;;;;;;;8.05;4.53;;;;;;;5.87;100.00;101262.84;5009157;28;20033;-72
2024/02/14 09:22:48;;;;;;;8.50;5.10;;;;;;;5.94;100.00;101265.44;5011588;28;20511;-72
2024/02/14 09:26:26;;;;;;;8.63;4.35;;;;;;;6.00;100.00;101264.53;5052394;28;20409;-71
2024/02/14 09:28:52;;;;;;;7.53;4.20;;;;;;;6.03;100.00;101264.09;5051873;28;20033;-71
2024/02/14 09:31:19;;;;;;;6.85;4.45;;;;;;;6.10;100.00;101264.81;5039821;28;20050;-71
2024/02/14 09:33:47;;;;;;;5.72;4.15;;;;;;;6.14;100.00;101265.16;5025735;28;20527;-72
2024/02/14 09:36:14;;;;;;;7.97;4.40;;;;;;;6.17;100.00;101260.22;5052237;28;20372;-72
2024/02/14 09:38:40;;;;;;;6.28;3.90;;;;;;;6.22;100.00;101264.81;5038096;28;20490;-71
2024/02/14 09:41:16;;;;;;;7.30;4.47;;;;;;;6.26;100.00;101264.16;5056456;28;20048;-71
2024/02/14 09:43:44;;;;;;;6.45;4.32;;;;;;;6.32;100.00;101261.63;5039074;28;20505;-71
2024/02/14 09:46:14;;;;;;;7.53;4.45;;;;;;;6.38;100.00;101266.84;5052784;28;20064;-72
2024/02/14 09:48:45;;;;;;;8.55;4.57;;;;;;;6.45;100.00;101269.41;5045905;28;20055;-72
2024/02/14 09:51:12;;;;;;;7.38;4.45;;;;;;;6.50;100.00;101269.50;5052759;28;20143;-73
2024/02/14 09:53:41;;;;;;;7.07;4.50;;;;;;;6.56;100.00;101273.91;5042641;28;20518;-72
2024/02/14 09:56:11;;;;;;;5.80;4.03;;;;;;;6.61;100.00;101275.88;5046833;28;20124;-72
2024/02/14 09:58:37;;;;;;;7.85;4.40;;;;;;;6.65;100.00;101272.53;5036197;28;20037;-73
2024/02/14 10:01:04;;;;;;;;;;;;;;;6.69;100.00;101268.38;5030452;28;20033;-73
2024/02/14 10:03:30;;;;;;;5.78;3.72;;;;;;;6.75;100.00;101282.59;5049404;28;20290;-73
2024/02/14 10:05:56;;;;;;;6.00;3.70;;;;;;;6.82;100.00;101273.47;5038080;28;20052;-72
2024/02/14 10:08:22;;;;;;;5.95;3.70;;;;;;;6.88;100.00;101273.59;5038524;28;20056;-72
2024/02/14 10:10:49;;;;;;;;;;;;;;;6.94;100.00;101270.00;5056485;28;20037;-72
2024/02/14 10:13:16;;;;;;;5.75;3.88;;;;;;;7.04;100.00;101279.00;5048447;28;20461;-72
2024/02/14 10:15:42;;;;;;;5.18;3.58;;;;;;;7.11;100.00;101277.06;5036106;28;20095;-72
2024/02/14 10:18:09;;;;;;;6.45;3.60;;;;;;;7.19;100.00;101267.91;5054511;28;20600;-72
2024/02/14 10:20:40;;;;;;;5.03;3.05;;;;;;;7.22;100.00;101278.06;5046974;28;20038;-72
2024/02/14 10:23:08;;;;;;;6.07;3.30;;;;;;;7.28;100.00;101285.13;5051748;28;20045;-73
2024/02/14 10:25:34;;;;;;;5.95;3.13;;;;;;;7.38;100.00;101280.03;5048630;28;20048;-72
2024/02/14 10:28:05;;;;;;;4.97;3.00;;;;;;;7.47;100.00;101285.00;5050780;28;20131;-72
2024/02/14 10:30:31;;;;;;;4.07;3.05;;;;;;;7.50;100.00;101284.50;5047392;28;20711;-72
2024/02/14 10:32:58;;;;;;;5.32;3.13;;;;;;;7.57;100.00;101286.00;5032441;28;20041;-73
2024/02/14 10:35:24;;;;;;;4.15;2.60;;;;;;;7.62;100.00;101282.63;5049702;28;20435;-72
2024/02/14 10:37:50;;;;;;;4.80;3.20;;;;;;;7.69;100.00;101282.50;5023939;28;20054;-72
2024/02/14 10:40:15;;;;;;;5.70;2.95;;;;;;;7.73;100.00;101286.31;5042033;28;20182;-72
2024/02/14 10:42:41;;;;;;;4.22;2.60;;;;;;;7.76;100.00;101288.50;5036738;28;20131;-72
2024/02/14 10:45:07;;;;;;;3.35;2.45;;;;;;;7.83;100.00;101289.97;5037058;28;20080;-72
2024/02/14 10:47:43;;;;;;;4.15;2.28;;;;;;;7.86;100.00;101292.19;5026615;28;20033;-71
2024/02/14 10:50:10;;;;;;;4.13;2.40;;;;;;;7.91;100.00;101286.09;5035415;28;20025;-70
2024/02/14 10:52:39;;;;;;;3.80;2.45;;;;;;;7.98;100.00;101296.63;5035923;28;20032;-71
2024/02/14 10:55:06;;;;;;;5.10;2.60;;;;;;;8.03;100.00;101283.41;5038180;28;20029;-72
2024/02/14 10:57:32;;;;;;;;;;;;;;;8.07;100.00;101298.69;5044089;28;20481;-72
2024/02/14 11:00:10;;;;;;;5.22;2.03;;;;;;;8.11;100.00;101293.69;5031673;28;19920;-72
2024/02/14 11:02:37;;;;;;;3.20;2.17;;;;;;;8.15;100.00;101292.16;5017022;28;20102;-72
2024/02/14 11:05:03;;;;;;;4.35;2.40;;;;;;;8.17;100.00;101298.06;5020514;28;20040;-72
2024/02/14 11:07:29;;;;;;;;;;;;;;;8.18;100.00;101297.81;5034616;28;20041;-71
2024/02/14 11:10:05;;;;;;;4.18;2.70;;;;;;;8.21;100.00;101300.00;5006746;28;19999;-71
2024/02/14 11:12:36;;;;;;;3.85;2.38;;;;;;;8.23;100.00;101293.63;5036443;28;20053;-70
2024/02/14 11:15:15;;;;;;;3.40;2.33;;;;;;;8.27;100.00;101298.25;5025519;28;20115;-71
2024/02/14 11:17:42;;;;;;;4.10;2.42;;;;;;;8.29;100.00;101296.13;5013849;28;20033;-72
2024/02/14 11:20:14;;;;;;;4.22;2.45;;;;;;;8.33;100.00;101294.63;5031282;28;20064;-72
2024/02/14 11:22:53;;;;;;;3.78;2.30;;;;;;;8.35;100.00;101303.22;5033357;28;20091;-72
2024/02/14 11:25:22;;;;;;;3.80;2.65;;;;;;;8.40;100.00;101302.47;5037033;28;20064;-71
2024/02/14 11:27:49;;;;;;;5.53;3.03;;;;;;;8.37;100.00;101293.09;5044579;22;20084;-71
2024/02/14 11:30:15;;;;;;;4.57;2.95;;;;;;;8.46;100.00;101299.66;5001271;28;20094;-73
2024/02/14 11:32:42;;;;;;;4.47;3.17;;;;;;;8.51;100.00;101295.47;5019722;28;20061;-72